Station Historical Data
Daily Summary for April 2, 2017 Units:  English    Metric   Both
« Previous Day
Next Day »
Daily Weekly Monthly Yearly Custom
  High: Low: Average:
Temperature: 79.9 °F 54.2 °F 66.2 °F
Dew Point: 51.1 °F 43.5 °F 46.4 °F
Humidity: 78% 28% 51%
Wind Speed: 1.0mph 0.0mph 0.1mph
Wind Gust: 6.0mph - -
Wind- - WNW
Pressure: 30.16 in 29.96 in -
Precipitation: 0.00 in    
Historical Graphs
 
 
Tabular Data for April 2, 2017
Time Temperature Dew Point Pressure Wind Wind Speed Wind Gust Humidity Rainfall Rate (Hourly) solar Conditions
00:00 57.6 °F 45.5 °F 30.10 in Calm     64% 0.00 in 0.0 W/m2 SCT
00:15 57.4 °F 45.7 °F 30.10 in Calm   1.0 mph 65% 0.00 in 0.0 W/m2 SCT
00:30 57.1 °F 45.8 °F 30.10 in Calm   1.0 mph 66% 0.00 in 0.0 W/m2 SCT
00:45 56.7 °F 45.1 °F 30.10 in Calm   1.0 mph 65% 0.00 in 0.0 W/m2 SCT
01:00 56.4 °F 45.2 °F 30.10 in Calm   1.0 mph 66% 0.00 in 0.0 W/m2 SCT
01:15 55.2 °F 44.0 °F 30.10 in Calm     66% 0.00 in 0.0 W/m2 SCT
01:30 55.2 °F 44.0 °F 30.10 in Calm     66% 0.00 in 0.0 W/m2 SCT
01:45 55.2 °F 44.0 °F 30.10 in Calm     66% 0.00 in 0.0 W/m2 SCT
02:00 55.2 °F 44.0 °F 30.09 in Calm     66% 0.00 in 0.0 W/m2 SCT
02:15 55.2 °F 44.0 °F 30.09 in Calm   1.0 mph 66% 0.00 in 0.0 W/m2 SCT
02:30 55.2 °F 44.0 °F 30.08 in Calm     66% 0.00 in 0.0 W/m2 SCT
02:45 55.2 °F 44.0 °F 30.07 in Calm     66% 0.00 in 0.0 W/m2 SCT
03:00 55.2 °F 44.0 °F 30.07 in Calm     66% 0.00 in 0.0 W/m2 SCT
03:15 55.2 °F 44.0 °F 30.06 in Calm     66% 0.00 in 0.0 W/m2 SCT
03:30 55.2 °F 44.0 °F 30.06 in Calm     66% 0.00 in 0.0 W/m2 SCT
03:45 55.2 °F 44.0 °F 30.06 in Calm     66% 0.00 in 0.0 W/m2 SCT
04:00 55.2 °F 44.0 °F 30.06 in Calm     66% 0.00 in 0.0 W/m2 SCT
04:15 55.2 °F 44.0 °F 30.06 in Calm     66% 0.00 in 0.0 W/m2 SCT
04:30 55.2 °F 44.0 °F 30.06 in Calm     66% 0.00 in 0.0 W/m2 SCT
04:45 55.2 °F 44.0 °F 30.06 in Calm     66% 0.00 in 0.0 W/m2 SCT
05:00 55.2 °F 44.0 °F 30.06 in Calm     66% 0.00 in 0.0 W/m2 SCT
05:15 55.2 °F 44.0 °F 30.06 in Calm     66% 0.00 in 0.0 W/m2 SCT
05:30 55.2 °F 44.0 °F 30.06 in Calm     66% 0.00 in 0.0 W/m2 SCT
05:45 55.2 °F 44.0 °F 30.07 in Calm     66% 0.00 in 0.0 W/m2 SCT
06:00 55.2 °F 44.0 °F 30.08 in Calm     66% 0.00 in 0.0 W/m2 SCT
06:15 55.2 °F 44.0 °F 30.08 in Calm     66% 0.00 in 0.0 W/m2 SCT
06:30 55.2 °F 44.0 °F 30.09 in Calm     66% 0.00 in 0.0 W/m2 SCT
06:45 55.2 °F 44.0 °F 30.09 in Calm     66% 0.00 in 0.0 W/m2 SCT
07:00 55.2 °F 44.0 °F 30.10 in Calm     66% 0.00 in 0.0 W/m2 SCT
07:15 55.2 °F 44.0 °F 30.10 in Calm     66% 0.00 in 0.0 W/m2 SCT
07:30 55.2 °F 44.0 °F 30.11 in Calm     66% 0.00 in 0.0 W/m2 SCT
07:45 55.2 °F 44.0 °F 30.12 in Calm     66% 0.00 in 0.0 W/m2 SCT
08:00 55.2 °F 44.0 °F 30.12 in Calm     66% 0.00 in 0.0 W/m2 SCT
08:15 54.2 °F 47.5 °F 30.13 in Calm     78% 0.00 in 0.0 W/m2 SCT
08:30 54.9 °F 47.5 °F 30.14 in Calm     76% 0.00 in 0.0 W/m2 SCT
08:45 56.2 °F 46.9 °F 30.14 in Calm   1.0 mph 71% 0.00 in 0.0 W/m2 SCT
09:00 57.4 °F 46.5 °F 30.14 in Calm   2.0 mph 67% 0.00 in 0.0 W/m2 SCT
09:15 58.4 °F 46.7 °F 30.13 in Calm   5.0 mph 65% 0.00 in 0.0 W/m2 SCT
09:30 59.2 °F 46.2 °F 30.13 in Calm   5.0 mph 62% 0.00 in 0.0 W/m2 SCT
09:45 60.5 °F 46.1 °F 30.14 in WNW 1.0 mph 5.0 mph 59% 0.00 in 0.0 W/m2 SCT
10:00 62.4 °F 47.4 °F 30.15 in Calm   5.0 mph 58% 0.00 in 0.0 W/m2 SCT
10:15 63.3 °F 46.9 °F 30.15 in WNW 1.0 mph 3.0 mph 55% 0.00 in 0.0 W/m2 SCT
10:30 64.6 °F 47.6 °F 30.15 in Calm   3.0 mph 54% 0.00 in 0.0 W/m2 SCT
10:45 65.9 °F 47.8 °F 30.15 in Calm   3.0 mph 52% 0.00 in 0.0 W/m2 SCT
11:00 66.7 °F 47.5 °F 30.15 in Calm   5.0 mph 50% 0.00 in 0.0 W/m2 SCT
11:15 67.9 °F 47.5 °F 30.15 in West 1.0 mph 5.0 mph 48% 0.00 in 0.0 W/m2 SCT
11:30 69.9 °F 49.3 °F 30.15 in Calm   5.0 mph 48% 0.00 in 0.0 W/m2 SCT
11:45 71.3 °F 48.8 °F 30.16 in Calm   2.0 mph 45% 0.00 in 0.0 W/m2 SCT
12:00 72.0 °F 49.5 °F 30.16 in Calm   5.0 mph 45% 0.00 in 0.0 W/m2 SCT
12:15 73.4 °F 50.1 °F 30.15 in Calm   2.0 mph 44% 0.00 in 0.0 W/m2 SCT
12:45 74.7 °F 50.1 °F 30.13 in West 1.0 mph 2.0 mph 42% 0.00 in 0.0 W/m2 SCT
13:00 75.1 °F 49.1 °F 30.12 in WNW 1.0 mph 5.0 mph 40% 0.00 in 0.0 W/m2 SCT
13:15 75.7 °F 49.7 °F 30.11 in Calm   5.0 mph 40% 0.00 in 0.0 W/m2 SCT
13:30 76.6 °F 51.1 °F 30.10 in Calm   5.0 mph 41% 0.00 in 0.0 W/m2 SCT
13:45 77.5 °F 49.2 °F 30.09 in Calm   6.0 mph 37% 0.00 in 0.0 W/m2 SCT
14:00 77.7 °F 48.6 °F 30.08 in Calm   5.0 mph 36% 0.00 in 0.0 W/m2 SCT
14:15 78.7 °F 47.1 °F 30.08 in NW 1.0 mph 3.0 mph 33% 0.00 in 0.0 W/m2 SCT
14:30 78.8 °F 47.2 °F 30.07 in Calm   5.0 mph 33% 0.00 in 0.0 W/m2 SCT
14:45 78.9 °F 48.9 °F 30.07 in WNW 1.0 mph 5.0 mph 35% 0.00 in 0.0 W/m2 SCT
15:00 79.5 °F 47.0 °F 30.06 in NW 1.0 mph 2.0 mph 32% 0.00 in 0.0 W/m2 SCT
15:15 79.3 °F 46.8 °F 30.05 in WSW 1.0 mph 5.0 mph 32% 0.00 in 0.0 W/m2 SCT
15:30 78.9 °F 47.3 °F 30.05 in Calm   2.0 mph 33% 0.00 in 0.0 W/m2 SCT
15:45 78.8 °F 48.1 °F 30.04 in Calm   5.0 mph 34% 0.00 in 0.0 W/m2 SCT
16:00 79.2 °F 45.1 °F 30.04 in NW 1.0 mph 3.0 mph 30% 0.00 in 0.0 W/m2 SCT
16:15 79.2 °F 45.1 °F 30.04 in NW 1.0 mph 3.0 mph 30% 0.00 in 0.0 W/m2 SCT
16:30 79.5 °F 43.5 °F 30.02 in NNW 1.0 mph 5.0 mph 28% 0.00 in 0.0 W/m2 SCT
16:45 79.8 °F 44.7 °F 30.02 in Calm   5.0 mph 29% 0.00 in 0.0 W/m2 SCT
17:00 79.9 °F 45.7 °F 30.02 in Calm   5.0 mph 30% 0.00 in 0.0 W/m2 SCT
17:15 79.7 °F 45.5 °F 30.01 in Calm   3.0 mph 30% 0.00 in 0.0 W/m2 SCT
17:45 79.6 °F 45.4 °F 30.00 in Calm   2.0 mph 30% 0.00 in 0.0 W/m2 SCT
18:00 78.8 °F 45.6 °F 30.00 in Calm   2.0 mph 31% 0.00 in 0.0 W/m2 SCT
18:15 78.3 °F 46.0 °F 29.99 in Calm   2.0 mph 32% 0.00 in 0.0 W/m2 SCT
18:30 78.3 °F 46.0 °F 29.98 in Calm   2.0 mph 32% 0.00 in 0.0 W/m2 SCT
18:45 77.7 °F 47.1 °F 29.97 in Calm   3.0 mph 34% 0.00 in 0.0 W/m2 SCT
19:00 77.4 °F 46.0 °F 29.98 in Calm   3.0 mph 33% 0.00 in 0.0 W/m2 SCT
19:15 76.6 °F 46.9 °F 29.97 in Calm   2.0 mph 35% 0.00 in 0.0 W/m2 SCT
19:30 75.9 °F 47.0 °F 29.97 in Calm   1.0 mph 36% 0.00 in 0.0 W/m2 SCT
19:45 75.0 °F 47.7 °F 29.96 in Calm   1.0 mph 38% 0.00 in 0.0 W/m2 SCT
20:00 74.0 °F 47.5 °F 29.97 in Calm   1.0 mph 39% 0.00 in 0.0 W/m2 SCT
20:15 73.1 °F 48.0 °F 29.97 in Calm     41% 0.00 in 0.0 W/m2 SCT
20:30 72.7 °F 47.6 °F 29.97 in Calm   2.0 mph 41% 0.00 in 0.0 W/m2 SCT
20:45 72.4 °F 48.0 °F 29.97 in Calm   1.0 mph 42% 0.00 in 0.0 W/m2 SCT
21:00 71.8 °F 48.1 °F 29.97 in Calm   1.0 mph 43% 0.00 in 0.0 W/m2 SCT
21:15 71.7 °F 48.0 °F 29.97 in Calm   3.0 mph 43% 0.00 in 0.0 W/m2 SCT
21:30 71.2 °F 48.2 °F 29.98 in Calm   1.0 mph 44% 0.00 in 0.0 W/m2 SCT
21:45 70.8 °F 48.4 °F 29.98 in Calm   1.0 mph 45% 0.00 in 0.0 W/m2 SCT
22:00 70.4 °F 48.1 °F 29.97 in Calm   1.0 mph 45% 0.00 in 0.0 W/m2 SCT
22:15 70.1 °F 47.8 °F 29.98 in Calm   2.0 mph 45% 0.00 in 0.0 W/m2 SCT
22:30 69.9 °F 48.2 °F 29.98 in Calm   2.0 mph 46% 0.00 in 0.0 W/m2 SCT
22:45 69.4 °F 48.9 °F 29.98 in Calm   1.0 mph 48% 0.00 in 0.0 W/m2 SCT
23:00 69.2 °F 49.2 °F 29.98 in Calm   2.0 mph 49% 0.00 in 0.0 W/m2 SCT
23:15 68.7 °F 49.9 °F 29.99 in Calm   1.0 mph 51% 0.00 in 0.0 W/m2 SCT
23:30 68.4 °F 50.1 °F 29.99 in Calm   1.0 mph 52% 0.00 in 0.0 W/m2 SCT
23:45 68.0 °F 50.2 °F 29.99 in Calm   1.0 mph 53% 0.00 in 0.0 W/m2 SCT
Piedmont Bend
Compliments of Weather Underground - 4 mb